sensor_id;sensor_type;location;lat;lon;timestamp;temperature;humidity
2539;DHT22;1280;49.760;9.664;2022-12-13T00:01:45;-2.90;70.70
2539;DHT22;1280;49.760;9.664;2022-12-13T00:04:13;-2.90;70.70
2539;DHT22;1280;49.760;9.664;2022-12-13T00:06:42;-2.80;70.70
2539;DHT22;1280;49.760;9.664;2022-12-13T00:09:12;-2.80;70.80
2539;DHT22;1280;49.760;9.664;2022-12-13T00:11:42;-2.70;70.80
2539;DHT22;1280;49.760;9.664;2022-12-13T00:14:11;-2.60;70.50
2539;DHT22;1280;49.760;9.664;2022-12-13T00:16:40;-2.70;70.20
2539;DHT22;1280;49.760;9.664;2022-12-13T00:19:11;-2.80;70.00
2539;DHT22;1280;49.760;9.664;2022-12-13T00:21:39;-2.90;69.90
2539;DHT22;1280;49.760;9.664;2022-12-13T00:24:07;-2.90;70.20
2539;DHT22;1280;49.760;9.664;2022-12-13T00:26:36;-2.90;70.20
2539;DHT22;1280;49.760;9.664;2022-12-13T00:29:06;-2.90;70.40
2539;DHT22;1280;49.760;9.664;2022-12-13T00:31:35;-2.80;70.50
2539;DHT22;1280;49.760;9.664;2022-12-13T00:34:23;-2.80;70.60
2539;DHT22;1280;49.760;9.664;2022-12-13T00:36:52;-2.80;70.50
2539;DHT22;1280;49.760;9.664;2022-12-13T00:39:20;-2.70;70.40
2539;DHT22;1280;49.760;9.664;2022-12-13T00:41:49;-2.70;70.20
2539;DHT22;1280;49.760;9.664;2022-12-13T00:44:18;-2.80;69.90
2539;DHT22;1280;49.760;9.664;2022-12-13T00:46:46;-2.90;69.90
2539;DHT22;1280;49.760;9.664;2022-12-13T00:49:14;-3.00;69.90
2539;DHT22;1280;49.760;9.664;2022-12-13T00:51:42;-3.00;69.90
2539;DHT22;1280;49.760;9.664;2022-12-13T00:54:10;-3.00;70.00
2539;DHT22;1280;49.760;9.664;2022-12-13T00:56:38;-3.10;70.00
2539;DHT22;1280;49.760;9.664;2022-12-13T00:59:06;-3.10;70.00
2539;DHT22;1280;49.760;9.664;2022-12-13T01:01:35;-3.10;70.20
2539;DHT22;1280;49.760;9.664;2022-12-13T01:04:05;-3.10;70.20
2539;DHT22;1280;49.760;9.664;2022-12-13T01:06:36;-3.10;70.20
2539;DHT22;1280;49.760;9.664;2022-12-13T01:09:06;-3.10;70.10
2539;DHT22;1280;49.760;9.664;2022-12-13T01:11:34;-3.10;70.00
2539;DHT22;1280;49.760;9.664;2022-12-13T01:14:02;-3.20;70.00
2539;DHT22;1280;49.760;9.664;2022-12-13T01:16:30;-3.30;69.90
2539;DHT22;1280;49.760;9.664;2022-12-13T01:19:00;-3.30;70.00
2539;DHT22;1280;49.760;9.664;2022-12-13T01:21:28;-3.30;70.30
2539;DHT22;1280;49.760;9.664;2022-12-13T01:24:00;-3.30;70.50
2539;DHT22;1280;49.760;9.664;2022-12-13T01:26:29;-3.20;70.60
2539;DHT22;1280;49.760;9.664;2022-12-13T01:28:58;-3.20;70.50
2539;DHT22;1280;49.760;9.664;2022-12-13T01:31:26;-3.20;70.50
2539;DHT22;1280;49.760;9.664;2022-12-13T01:33:54;-3.20;70.60
2539;DHT22;1280;49.760;9.664;2022-12-13T01:36:23;-3.20;70.50
2539;DHT22;1280;49.760;9.664;2022-12-13T01:38:54;-3.10;70.60
2539;DHT22;1280;49.760;9.664;2022-12-13T01:41:24;-3.00;70.90
2539;DHT22;1280;49.760;9.664;2022-12-13T01:43:56;-3.00;71.00
2539;DHT22;1280;49.760;9.664;2022-12-13T01:46:26;-2.90;70.80
2539;DHT22;1280;49.760;9.664;2022-12-13T01:49:00;-2.90;70.60
2539;DHT22;1280;49.760;9.664;2022-12-13T01:51:34;-2.90;70.50
2539;DHT22;1280;49.760;9.664;2022-12-13T01:54:07;-2.90;70.70
2539;DHT22;1280;49.760;9.664;2022-12-13T01:56:41;-2.80;70.80
2539;DHT22;1280;49.760;9.664;2022-12-13T01:59:14;-2.80;70.90
2539;DHT22;1280;49.760;9.664;2022-12-13T02:01:46;-2.70;70.80
2539;DHT22;1280;49.760;9.664;2022-12-13T02:04:21;-2.70;70.70
2539;DHT22;1280;49.760;9.664;2022-12-13T02:06:51;-2.70;70.60
2539;DHT22;1280;49.760;9.664;2022-12-13T02:09:21;-2.70;70.50
2539;DHT22;1280;49.760;9.664;2022-12-13T02:11:50;-2.70;70.40
2539;DHT22;1280;49.760;9.664;2022-12-13T02:14:18;-2.70;70.30
2539;DHT22;1280;49.760;9.664;2022-12-13T02:16:53;-2.70;70.30
2539;DHT22;1280;49.760;9.664;2022-12-13T02:19:53;-2.80;70.20
2539;DHT22;1280;49.760;9.664;2022-12-13T02:22:39;-2.80;70.00
2539;DHT22;1280;49.760;9.664;2022-12-13T02:25:27;-2.90;69.90
2539;DHT22;1280;49.760;9.664;2022-12-13T02:28:12;-3.00;69.90
2539;DHT22;1280;49.760;9.664;2022-12-13T02:31:03;-3.00;70.20
2539;DHT22;1280;49.760;9.664;2022-12-13T02:33:38;-3.00;70.30
2539;DHT22;1280;49.760;9.664;2022-12-13T02:36:16;-2.90;70.20
2539;DHT22;1280;49.760;9.664;2022-12-13T02:38:51;-3.00;70.10
2539;DHT22;1280;49.760;9.664;2022-12-13T02:41:24;-3.00;70.00
2539;DHT22;1280;49.760;9.664;2022-12-13T02:43:56;-3.00;70.10
2539;DHT22;1280;49.760;9.664;2022-12-13T02:46:32;-3.00;70.20
2539;DHT22;1280;49.760;9.664;2022-12-13T02:49:02;-2.90;70.30
2539;DHT22;1280;49.760;9.664;2022-12-13T02:51:32;-2.90;70.20
2539;DHT22;1280;49.760;9.664;2022-12-13T02:54:01;-2.90;70.10
2539;DHT22;1280;49.760;9.664;2022-12-13T02:56:30;-2.90;70.00
2539;DHT22;1280;49.760;9.664;2022-12-13T02:59:01;-3.00;70.00
2539;DHT22;1280;49.760;9.664;2022-12-13T03:01:46;-3.00;70.00
2539;DHT22;1280;49.760;9.664;2022-12-13T03:04:26;-3.00;69.90
2539;DHT22;1280;49.760;9.664;2022-12-13T03:07:04;-3.00;69.60
2539;DHT22;1280;49.760;9.664;2022-12-13T03:09:41;-3.10;69.50
2539;DHT22;1280;49.760;9.664;2022-12-13T03:12:22;-3.20;69.50
2539;DHT22;1280;49.760;9.664;2022-12-13T03:15:15;-3.30;69.50
2539;DHT22;1280;49.760;9.664;2022-12-13T03:17:49;-3.40;69.60
2539;DHT22;1280;49.760;9.664;2022-12-13T03:20:23;-3.40;70.00
2539;DHT22;1280;49.760;9.664;2022-12-13T03:22:53;-3.40;70.00
2539;DHT22;1280;49.760;9.664;2022-12-13T03:25:23;-3.30;70.00
2539;DHT22;1280;49.760;9.664;2022-12-13T03:27:59;-3.30;70.30
2539;DHT22;1280;49.760;9.664;2022-12-13T03:30:29;-3.20;70.30
2539;DHT22;1280;49.760;9.664;2022-12-13T03:32:59;-3.20;70.00
2539;DHT22;1280;49.760;9.664;2022-12-13T03:35:27;-3.20;70.00
2539;DHT22;1280;49.760;9.664;2022-12-13T03:38:14;-3.20;70.10
2539;DHT22;1280;49.760;9.664;2022-12-13T03:40:51;-3.10;70.10
2539;DHT22;1280;49.760;9.664;2022-12-13T03:43:20;-3.10;69.90
2539;DHT22;1280;49.760;9.664;2022-12-13T03:45:50;-3.20;69.80
2539;DHT22;1280;49.760;9.664;2022-12-13T03:48:20;-3.20;69.50
2539;DHT22;1280;49.760;9.664;2022-12-13T03:50:50;-3.30;69.50
2539;DHT22;1280;49.760;9.664;2022-12-13T03:53:19;-3.30;69.70
2539;DHT22;1280;49.760;9.664;2022-12-13T03:55:58;-3.30;69.70
2539;DHT22;1280;49.760;9.664;2022-12-13T03:58:27;-3.40;69.40
2539;DHT22;1280;49.760;9.664;2022-12-13T04:01:04;-3.40;69.30
2539;DHT22;1280;49.760;9.664;2022-12-13T04:03:34;-3.50;69.40
2539;DHT22;1280;49.760;9.664;2022-12-13T04:06:02;-3.50;69.40
2539;DHT22;1280;49.760;9.664;2022-12-13T04:08:30;-3.50;69.50
2539;DHT22;1280;49.760;9.664;2022-12-13T04:10:58;-3.60;69.50
2539;DHT22;1280;49.760;9.664;2022-12-13T04:13:46;-3.60;69.50
2539;DHT22;1280;49.760;9.664;2022-12-13T04:16:13;-3.70;69.50
2539;DHT22;1280;49.760;9.664;2022-12-13T04:18:43;-3.70;69.60
2539;DHT22;1280;49.760;9.664;2022-12-13T04:21:11;-3.70;69.70
2539;DHT22;1280;49.760;9.664;2022-12-13T04:23:39;-3.70;69.60
2539;DHT22;1280;49.760;9.664;2022-12-13T04:26:08;-3.70;69.50
2539;DHT22;1280;49.760;9.664;2022-12-13T04:28:36;-3.80;69.40
2539;DHT22;1280;49.760;9.664;2022-12-13T04:31:04;-3.80;69.40
2539;DHT22;1280;49.760;9.664;2022-12-13T04:33:32;-3.90;69.60
2539;DHT22;1280;49.760;9.664;2022-12-13T04:36:01;-3.80;69.80
2539;DHT22;1280;49.760;9.664;2022-12-13T04:38:30;-3.80;70.00
2539;DHT22;1280;49.760;9.664;2022-12-13T04:41:05;-3.70;70.10
2539;DHT22;1280;49.760;9.664;2022-12-13T04:43:33;-3.70;70.00
2539;DHT22;1280;49.760;9.664;2022-12-13T04:46:01;-3.70;69.70
2539;DHT22;1280;49.760;9.664;2022-12-13T04:48:29;-3.70;69.70
2539;DHT22;1280;49.760;9.664;2022-12-13T04:50:58;-3.80;69.60
2539;DHT22;1280;49.760;9.664;2022-12-13T04:53:29;-3.80;69.50
2539;DHT22;1280;49.760;9.664;2022-12-13T04:55:57;-3.90;69.50
2539;DHT22;1280;49.760;9.664;2022-12-13T04:58:25;-3.90;69.70
2539;DHT22;1280;49.760;9.664;2022-12-13T05:00:53;-3.90;69.70
2539;DHT22;1280;49.760;9.664;2022-12-13T05:03:22;-3.90;69.80
2539;DHT22;1280;49.760;9.664;2022-12-13T05:05:50;-3.90;69.80
2539;DHT22;1280;49.760;9.664;2022-12-13T05:08:18;-3.90;69.80
2539;DHT22;1280;49.760;9.664;2022-12-13T05:10:47;-3.90;69.70
2539;DHT22;1280;49.760;9.664;2022-12-13T05:13:15;-4.00;69.60
2539;DHT22;1280;49.760;9.664;2022-12-13T05:15:43;-4.10;69.60
2539;DHT22;1280;49.760;9.664;2022-12-13T05:18:24;-4.10;69.90
2539;DHT22;1280;49.760;9.664;2022-12-13T05:20:52;-4.10;70.10
2539;DHT22;1280;49.760;9.664;2022-12-13T05:23:22;-4.00;70.30
2539;DHT22;1280;49.760;9.664;2022-12-13T05:25:52;-4.00;70.20
2539;DHT22;1280;49.760;9.664;2022-12-13T05:28:20;-3.90;70.20
2539;DHT22;1280;49.760;9.664;2022-12-13T05:30:55;-3.90;70.20
2539;DHT22;1280;49.760;9.664;2022-12-13T05:33:24;-3.90;70.00
2539;DHT22;1280;49.760;9.664;2022-12-13T05:35:52;-3.90;70.00
2539;DHT22;1280;49.760;9.664;2022-12-13T05:38:28;-4.00;69.90
2539;DHT22;1280;49.760;9.664;2022-12-13T05:40:57;-4.00;70.00
2539;DHT22;1280;49.760;9.664;2022-12-13T05:43:25;-4.10;70.10
2539;DHT22;1280;49.760;9.664;2022-12-13T05:46:10;-4.00;70.20
2539;DHT22;1280;49.760;9.664;2022-12-13T05:48:38;-4.00;70.20
2539;DHT22;1280;49.760;9.664;2022-12-13T05:51:06;-4.00;70.20
2539;DHT22;1280;49.760;9.664;2022-12-13T05:53:38;-4.10;70.10
2539;DHT22;1280;49.760;9.664;2022-12-13T05:56:08;-4.00;70.20
2539;DHT22;1280;49.760;9.664;2022-12-13T05:58:38;-4.00;70.30
2539;DHT22;1280;49.760;9.664;2022-12-13T06:01:08;-4.00;70.20
2539;DHT22;1280;49.760;9.664;2022-12-13T06:03:36;-4.00;70.20
2539;DHT22;1280;49.760;9.664;2022-12-13T06:06:06;-4.00;70.30
2539;DHT22;1280;49.760;9.664;2022-12-13T06:08:35;-4.00;70.20
2539;DHT22;1280;49.760;9.664;2022-12-13T06:11:04;-4.00;70.30
2539;DHT22;1280;49.760;9.664;2022-12-13T06:13:40;-4.00;70.30
2539;DHT22;1280;49.760;9.664;2022-12-13T06:16:11;-4.00;70.30
2539;DHT22;1280;49.760;9.664;2022-12-13T06:18:50;-4.00;70.20
2539;DHT22;1280;49.760;9.664;2022-12-13T06:21:28;-3.90;70.50
2539;DHT22;1280;49.760;9.664;2022-12-13T06:24:14;-3.90;70.60
2539;DHT22;1280;49.760;9.664;2022-12-13T06:26:42;-3.80;70.50
2539;DHT22;1280;49.760;9.664;2022-12-13T06:29:13;-3.80;70.50
2539;DHT22;1280;49.760;9.664;2022-12-13T06:31:56;-3.80;70.50
2539;DHT22;1280;49.760;9.664;2022-12-13T06:34:29;-3.80;70.40
2539;DHT22;1280;49.760;9.664;2022-12-13T06:36:58;-3.70;70.30
2539;DHT22;1280;49.760;9.664;2022-12-13T06:39:27;-3.80;70.10
2539;DHT22;1280;49.760;9.664;2022-12-13T06:42:06;-3.80;69.90
2539;DHT22;1280;49.760;9.664;2022-12-13T06:44:35;-3.80;69.90
2539;DHT22;1280;49.760;9.664;2022-12-13T06:47:04;-3.90;70.00
2539;DHT22;1280;49.760;9.664;2022-12-13T06:49:39;-3.90;70.10
2539;DHT22;1280;49.760;9.664;2022-12-13T06:52:09;-3.90;70.10
2539;DHT22;1280;49.760;9.664;2022-12-13T06:54:38;-3.90;70.10
2539;DHT22;1280;49.760;9.664;2022-12-13T06:57:06;-3.80;70.20
2539;DHT22;1280;49.760;9.664;2022-12-13T06:59:35;-3.80;70.20
2539;DHT22;1280;49.760;9.664;2022-12-13T07:02:04;-3.80;70.20
2539;DHT22;1280;49.760;9.664;2022-12-13T07:04:50;-3.80;70.10
2539;DHT22;1280;49.760;9.664;2022-12-13T07:07:18;-3.80;70.00
2539;DHT22;1280;49.760;9.664;2022-12-13T07:09:46;-3.80;70.10
2539;DHT22;1280;49.760;9.664;2022-12-13T07:12:14;-3.80;70.10
2539;DHT22;1280;49.760;9.664;2022-12-13T07:14:43;-3.80;70.10
2539;DHT22;1280;49.760;9.664;2022-12-13T07:17:11;-3.80;70.00
2539;DHT22;1280;49.760;9.664;2022-12-13T07:20:00;-3.80;69.90
2539;DHT22;1280;49.760;9.664;2022-12-13T07:22:28;-3.90;69.80
2539;DHT22;1280;49.760;9.664;2022-12-13T07:25:01;-3.90;69.80
2539;DHT22;1280;49.760;9.664;2022-12-13T07:27:30;-3.90;69.70
2539;DHT22;1280;49.760;9.664;2022-12-13T07:30:00;-3.90;69.70
2539;DHT22;1280;49.760;9.664;2022-12-13T07:32:29;-4.00;69.60
2539;DHT22;1280;49.760;9.664;2022-12-13T07:34:57;-4.00;69.60
2539;DHT22;1280;49.760;9.664;2022-12-13T07:37:25;-4.10;69.50
2539;DHT22;1280;49.760;9.664;2022-12-13T07:39:57;-4.10;69.50
2539;DHT22;1280;49.760;9.664;2022-12-13T07:42:30;-4.10;69.60
2539;DHT22;1280;49.760;9.664;2022-12-13T07:44:59;-4.10;69.70
2539;DHT22;1280;49.760;9.664;2022-12-13T07:47:28;-4.10;69.70
2539;DHT22;1280;49.760;9.664;2022-12-13T07:49:57;-4.10;69.70
2539;DHT22;1280;49.760;9.664;2022-12-13T07:52:27;-4.10;69.60
2539;DHT22;1280;49.760;9.664;2022-12-13T07:54:55;-4.00;69.90
2539;DHT22;1280;49.760;9.664;2022-12-13T07:57:23;-4.00;70.00
2539;DHT22;1280;49.760;9.664;2022-12-13T07:59:51;-3.90;69.90
2539;DHT22;1280;49.760;9.664;2022-12-13T08:02:20;-3.90;69.90
2539;DHT22;1280;49.760;9.664;2022-12-13T08:04:48;-3.90;69.90
2539;DHT22;1280;49.760;9.664;2022-12-13T08:07:20;-3.90;69.90
2539;DHT22;1280;49.760;9.664;2022-12-13T08:09:48;-3.80;69.90
2539;DHT22;1280;49.760;9.664;2022-12-13T08:12:19;-3.80;69.80
2539;DHT22;1280;49.760;9.664;2022-12-13T08:14:48;-3.90;69.70
2539;DHT22;1280;49.760;9.664;2022-12-13T08:17:20;-3.90;69.70
2539;DHT22;1280;49.760;9.664;2022-12-13T08:19:48;-3.90;69.80
2539;DHT22;1280;49.760;9.664;2022-12-13T08:22:18;-3.90;69.90
2539;DHT22;1280;49.760;9.664;2022-12-13T08:24:50;-3.80;70.00
2539;DHT22;1280;49.760;9.664;2022-12-13T08:27:18;-3.80;69.90
2539;DHT22;1280;49.760;9.664;2022-12-13T08:29:46;-3.80;70.00
2539;DHT22;1280;49.760;9.664;2022-12-13T08:32:14;-3.80;70.00
2539;DHT22;1280;49.760;9.664;2022-12-13T08:34:43;-3.80;70.10
2539;DHT22;1280;49.760;9.664;2022-12-13T08:37:12;-3.70;70.20
2539;DHT22;1280;49.760;9.664;2022-12-13T08:39:40;-3.70;70.30
2539;DHT22;1280;49.760;9.664;2022-12-13T08:42:11;-3.60;70.30
2539;DHT22;1280;49.760;9.664;2022-12-13T08:44:46;-3.60;70.30
2539;DHT22;1280;49.760;9.664;2022-12-13T08:47:17;-3.60;70.10
2539;DHT22;1280;49.760;9.664;2022-12-13T08:49:51;-3.60;70.20
2539;DHT22;1280;49.760;9.664;2022-12-13T08:52:20;-3.60;70.40
2539;DHT22;1280;49.760;9.664;2022-12-13T08:54:49;-3.50;70.40
2539;DHT22;1280;49.760;9.664;2022-12-13T08:57:17;-3.50;70.40
2539;DHT22;1280;49.760;9.664;2022-12-13T08:59:45;-3.50;70.50
2539;DHT22;1280;49.760;9.664;2022-12-13T09:02:13;-3.50;70.50
2539;DHT22;1280;49.760;9.664;2022-12-13T09:04:42;-3.50;70.90
2539;DHT22;1280;49.760;9.664;2022-12-13T09:07:11;-3.50;70.60
2539;DHT22;1280;49.760;9.664;2022-12-13T09:09:39;-3.50;70.60
2539;DHT22;1280;49.760;9.664;2022-12-13T09:12:08;-3.50;70.80
2539;DHT22;1280;49.760;9.664;2022-12-13T09:14:56;-3.40;70.90
2539;DHT22;1280;49.760;9.664;2022-12-13T09:17:29;-3.40;71.00
2539;DHT22;1280;49.760;9.664;2022-12-13T09:20:04;-3.40;71.00
2539;DHT22;1280;49.760;9.664;2022-12-13T09:22:55;-3.40;71.00
2539;DHT22;1280;49.760;9.664;2022-12-13T09:25:28;-3.40;71.10
2539;DHT22;1280;49.760;9.664;2022-12-13T09:28:04;-3.40;71.20
2539;DHT22;1280;49.760;9.664;2022-12-13T09:30:33;-3.40;71.40
2539;DHT22;1280;49.760;9.664;2022-12-13T09:33:01;-3.30;71.40
2539;DHT22;1280;49.760;9.664;2022-12-13T09:35:49;-3.20;71.50
2539;DHT22;1280;49.760;9.664;2022-12-13T09:38:19;-3.20;71.50
2539;DHT22;1280;49.760;9.664;2022-12-13T09:40:49;-3.20;71.60
2539;DHT22;1280;49.760;9.664;2022-12-13T09:43:27;-3.20;71.60
2539;DHT22;1280;49.760;9.664;2022-12-13T09:46:04;-3.20;71.50
2539;DHT22;1280;49.760;9.664;2022-12-13T09:48:51;-3.20;71.70
2539;DHT22;1280;49.760;9.664;2022-12-13T09:51:28;-3.30;71.70
2539;DHT22;1280;49.760;9.664;2022-12-13T09:54:17;-3.30;71.80
2539;DHT22;1280;49.760;9.664;2022-12-13T09:56:46;-3.30;72.00
2539;DHT22;1280;49.760;9.664;2022-12-13T09:59:19;-3.30;72.00
2539;DHT22;1280;49.760;9.664;2022-12-13T10:01:48;-3.20;72.30
2539;DHT22;1280;49.760;9.664;2022-12-13T10:04:17;-3.20;72.10
2539;DHT22;1280;49.760;9.664;2022-12-13T10:06:45;-3.20;72.30
2539;DHT22;1280;49.760;9.664;2022-12-13T10:09:14;-3.20;72.30
2539;DHT22;1280;49.760;9.664;2022-12-13T10:11:48;-3.10;72.40
2539;DHT22;1280;49.760;9.664;2022-12-13T10:14:20;-3.10;72.60
2539;DHT22;1280;49.760;9.664;2022-12-13T10:16:53;-3.00;72.70
2539;DHT22;1280;49.760;9.664;2022-12-13T10:19:27;-2.90;72.60
2539;DHT22;1280;49.760;9.664;2022-12-13T10:21:57;-2.90;72.60
2539;DHT22;1280;49.760;9.664;2022-12-13T10:24:46;-2.90;72.60
2539;DHT22;1280;49.760;9.664;2022-12-13T10:27:16;-2.90;72.90
2539;DHT22;1280;49.760;9.664;2022-12-13T10:30:00;-2.80;72.80
2539;DHT22;1280;49.760;9.664;2022-12-13T10:32:29;-2.80;72.90
2539;DHT22;1280;49.760;9.664;2022-12-13T10:35:15;-2.80;72.90
2539;DHT22;1280;49.760;9.664;2022-12-13T10:37:47;-2.70;73.10
2539;DHT22;1280;49.760;9.664;2022-12-13T10:40:33;-2.70;73.10
2539;DHT22;1280;49.760;9.664;2022-12-13T10:43:11;-2.60;73.20
2539;DHT22;1280;49.760;9.664;2022-12-13T10:45:40;-2.60;73.20
2539;DHT22;1280;49.760;9.664;2022-12-13T10:48:18;-2.60;73.40
2539;DHT22;1280;49.760;9.664;2022-12-13T10:50:59;-2.50;73.20
2539;DHT22;1280;49.760;9.664;2022-12-13T10:53:30;-2.50;73.30
2539;DHT22;1280;49.760;9.664;2022-12-13T10:56:00;-2.40;73.40
2539;DHT22;1280;49.760;9.664;2022-12-13T10:58:39;-2.40;73.30
2539;DHT22;1280;49.760;9.664;2022-12-13T11:01:18;-2.40;73.50
2539;DHT22;1280;49.760;9.664;2022-12-13T11:03:56;-2.40;73.40
2539;DHT22;1280;49.760;9.664;2022-12-13T11:06:39;-2.40;73.40
2539;DHT22;1280;49.760;9.664;2022-12-13T11:09:13;-2.30;73.50
2539;DHT22;1280;49.760;9.664;2022-12-13T11:11:52;-2.30;73.80
2539;DHT22;1280;49.760;9.664;2022-12-13T11:14:27;-2.30;73.70
2539;DHT22;1280;49.760;9.664;2022-12-13T11:17:04;-2.30;73.90
2539;DHT22;1280;49.760;9.664;2022-12-13T11:19:37;-2.20;73.80
2539;DHT22;1280;49.760;9.664;2022-12-13T11:22:07;-2.20;73.80
2539;DHT22;1280;49.760;9.664;2022-12-13T11:24:37;-2.20;74.00
2539;DHT22;1280;49.760;9.664;2022-12-13T11:27:22;-2.20;74.00
2539;DHT22;1280;49.760;9.664;2022-12-13T11:33:07;-2.10;74.10
2539;DHT22;1280;49.760;9.664;2022-12-13T11:35:52;-2.10;74.30
2539;DHT22;1280;49.760;9.664;2022-12-13T11:38:28;-2.00;74.30
2539;DHT22;1280;49.760;9.664;2022-12-13T11:41:00;-2.00;74.20
2539;DHT22;1280;49.760;9.664;2022-12-13T11:43:38;-1.90;74.20
2539;DHT22;1280;49.760;9.664;2022-12-13T11:46:13;-1.90;74.30
2539;DHT22;1280;49.760;9.664;2022-12-13T11:48:46;-1.90;74.30
2539;DHT22;1280;49.760;9.664;2022-12-13T11:51:21;-1.90;74.20
2539;DHT22;1280;49.760;9.664;2022-12-13T11:53:54;-1.80;74.30
2539;DHT22;1280;49.760;9.664;2022-12-13T11:56:25;-1.80;74.30
2539;DHT22;1280;49.760;9.664;2022-12-13T11:59:01;-1.80;74.40
2539;DHT22;1280;49.760;9.664;2022-12-13T12:01:44;-1.70;74.40
2539;DHT22;1280;49.760;9.664;2022-12-13T12:04:18;-1.70;74.40
2539;DHT22;1280;49.760;9.664;2022-12-13T12:06:50;-1.60;74.50
2539;DHT22;1280;49.760;9.664;2022-12-13T12:09:22;-1.60;74.60
2539;DHT22;1280;49.760;9.664;2022-12-13T12:11:56;-1.60;74.40
2539;DHT22;1280;49.760;9.664;2022-12-13T12:14:36;-1.60;74.60
2539;DHT22;1280;49.760;9.664;2022-12-13T12:17:11;-1.50;74.70
2539;DHT22;1280;49.760;9.664;2022-12-13T12:19:44;-1.50;74.70
2539;DHT22;1280;49.760;9.664;2022-12-13T12:22:21;-1.50;74.70
2539;DHT22;1280;49.760;9.664;2022-12-13T12:25:07;-1.50;74.70
2539;DHT22;1280;49.760;9.664;2022-12-13T12:27:47;-1.50;74.70
2539;DHT22;1280;49.760;9.664;2022-12-13T12:30:21;-1.40;74.80
2539;DHT22;1280;49.760;9.664;2022-12-13T12:32:53;-1.40;74.80
2539;DHT22;1280;49.760;9.664;2022-12-13T12:35:43;-1.40;74.70
2539;DHT22;1280;49.760;9.664;2022-12-13T12:38:29;-1.40;74.80
2539;DHT22;1280;49.760;9.664;2022-12-13T12:41:27;-1.40;74.80
2539;DHT22;1280;49.760;9.664;2022-12-13T12:44:03;-1.40;74.90
2539;DHT22;1280;49.760;9.664;2022-12-13T12:46:42;-1.40;74.90
2539;DHT22;1280;49.760;9.664;2022-12-13T12:50:02;-1.30;74.90
2539;DHT22;1280;49.760;9.664;2022-12-13T12:52:45;-1.30;75.00
2539;DHT22;1280;49.760;9.664;2022-12-13T12:55:18;-1.30;74.90
2539;DHT22;1280;49.760;9.664;2022-12-13T12:57:57;-1.30;74.90
2539;DHT22;1280;49.760;9.664;2022-12-13T13:00:32;-1.30;75.00
2539;DHT22;1280;49.760;9.664;2022-12-13T13:03:12;-1.20;75.00
2539;DHT22;1280;49.760;9.664;2022-12-13T13:05:52;-1.20;75.10
2539;DHT22;1280;49.760;9.664;2022-12-13T13:08:33;-1.20;75.00
2539;DHT22;1280;49.760;9.664;2022-12-13T13:11:04;-1.20;75.10
2539;DHT22;1280;49.760;9.664;2022-12-13T13:14:02;-1.20;75.20
2539;DHT22;1280;49.760;9.664;2022-12-13T13:16:34;-1.20;75.20
2539;DHT22;1280;49.760;9.664;2022-12-13T13:19:07;-1.20;75.20
2539;DHT22;1280;49.760;9.664;2022-12-13T13:21:53;-1.10;75.30
2539;DHT22;1280;49.760;9.664;2022-12-13T13:24:29;-1.10;75.30
2539;DHT22;1280;49.760;9.664;2022-12-13T13:26:58;-1.10;75.30
2539;DHT22;1280;49.760;9.664;2022-12-13T13:29:32;-1.10;75.30
2539;DHT22;1280;49.760;9.664;2022-12-13T13:47:37;-0.90;75.60
2539;DHT22;1280;49.760;9.664;2022-12-13T13:53:41;-0.70;75.50
2539;DHT22;1280;49.760;9.664;2022-12-13T13:56:32;-0.70;75.40
2539;DHT22;1280;49.760;9.664;2022-12-13T13:59:49;-0.60;75.40
2539;DHT22;1280;49.760;9.664;2022-12-13T14:02:47;-0.60;75.30
2539;DHT22;1280;49.760;9.664;2022-12-13T14:05:40;-0.60;75.30
2539;DHT22;1280;49.760;9.664;2022-12-13T14:08:34;-0.60;75.30
2539;DHT22;1280;49.760;9.664;2022-12-13T14:14:31;-0.60;75.20
2539;DHT22;1280;49.760;9.664;2022-12-13T14:20:42;-0.50;75.30
2539;DHT22;1280;49.760;9.664;2022-12-13T14:23:20;-0.50;75.20
2539;DHT22;1280;49.760;9.664;2022-12-13T14:26:08;-0.50;75.00
2539;DHT22;1280;49.760;9.664;2022-12-13T14:28:46;-0.60;74.90
2539;DHT22;1280;49.760;9.664;2022-12-13T14:31:16;-0.60;75.00
2539;DHT22;1280;49.760;9.664;2022-12-13T14:33:49;-0.60;75.00
2539;DHT22;1280;49.760;9.664;2022-12-13T14:36:26;-0.60;75.00
2539;DHT22;1280;49.760;9.664;2022-12-13T14:39:01;-0.60;75.10
2539;DHT22;1280;49.760;9.664;2022-12-13T14:41:30;-0.60;75.00
2539;DHT22;1280;49.760;9.664;2022-12-13T14:44:14;-0.60;74.90
2539;DHT22;1280;49.760;9.664;2022-12-13T14:46:50;-0.60;74.90
2539;DHT22;1280;49.760;9.664;2022-12-13T14:49:19;-0.70;74.90
2539;DHT22;1280;49.760;9.664;2022-12-13T14:51:49;-0.60;75.00
2539;DHT22;1280;49.760;9.664;2022-12-13T14:54:20;-0.60;75.20
2539;DHT22;1280;49.760;9.664;2022-12-13T14:56:58;-0.60;75.20
2539;DHT22;1280;49.760;9.664;2022-12-13T14:59:27;-0.50;75.10
2539;DHT22;1280;49.760;9.664;2022-12-13T15:01:58;-0.50;75.10
2539;DHT22;1280;49.760;9.664;2022-12-13T15:04:29;-0.50;75.10
2539;DHT22;1280;49.760;9.664;2022-12-13T15:07:01;-0.50;75.00
2539;DHT22;1280;49.760;9.664;2022-12-13T15:09:34;-0.50;74.80
2539;DHT22;1280;49.760;9.664;2022-12-13T15:12:09;-0.50;74.80
2539;DHT22;1280;49.760;9.664;2022-12-13T15:14:56;-0.50;74.50
2539;DHT22;1280;49.760;9.664;2022-12-13T15:17:31;-0.60;74.40
2539;DHT22;1280;49.760;9.664;2022-12-13T15:20:22;-0.60;74.60
2539;DHT22;1280;49.760;9.664;2022-12-13T15:22:57;-0.60;74.50
2539;DHT22;1280;49.760;9.664;2022-12-13T15:25:29;-0.70;74.40
2539;DHT22;1280;49.760;9.664;2022-12-13T15:28:00;-0.70;74.40
2539;DHT22;1280;49.760;9.664;2022-12-13T15:30:32;-0.70;74.40
2539;DHT22;1280;49.760;9.664;2022-12-13T15:33:01;-0.80;74.30
2539;DHT22;1280;49.760;9.664;2022-12-13T15:35:30;-0.80;74.30
2539;DHT22;1280;49.760;9.664;2022-12-13T15:38:00;-0.90;74.30
2539;DHT22;1280;49.760;9.664;2022-12-13T15:40:28;-0.90;74.30
2539;DHT22;1280;49.760;9.664;2022-12-13T15:42:56;-0.90;74.30
2539;DHT22;1280;49.760;9.664;2022-12-13T15:45:26;-0.90;74.30
2539;DHT22;1280;49.760;9.664;2022-12-13T15:48:03;-0.90;74.30
2539;DHT22;1280;49.760;9.664;2022-12-13T15:50:33;-0.90;74.20
2539;DHT22;1280;49.760;9.664;2022-12-13T15:53:04;-0.90;74.10
2539;DHT22;1280;49.760;9.664;2022-12-13T15:55:34;-0.90;74.00
2539;DHT22;1280;49.760;9.664;2022-12-13T15:58:15;-1.00;73.90
2539;DHT22;1280;49.760;9.664;2022-12-13T16:00:50;-1.00;74.00
2539;DHT22;1280;49.760;9.664;2022-12-13T16:03:21;-1.00;74.00
2539;DHT22;1280;49.760;9.664;2022-12-13T16:05:52;-1.00;73.90
2539;DHT22;1280;49.760;9.664;2022-12-13T16:08:25;-1.10;73.80
2539;DHT22;1280;49.760;9.664;2022-12-13T16:10:55;-1.10;73.80
2539;DHT22;1280;49.760;9.664;2022-12-13T16:13:25;-1.20;73.70
2539;DHT22;1280;49.760;9.664;2022-12-13T16:15:57;-1.20;73.60
2539;DHT22;1280;49.760;9.664;2022-12-13T16:18:42;-1.20;73.70
2539;DHT22;1280;49.760;9.664;2022-12-13T16:21:11;-1.30;73.60
2539;DHT22;1280;49.760;9.664;2022-12-13T16:23:40;-1.30;73.70
2539;DHT22;1280;49.760;9.664;2022-12-13T16:26:20;-1.30;73.70
2539;DHT22;1280;49.760;9.664;2022-12-13T16:28:49;-1.30;73.80
2539;DHT22;1280;49.760;9.664;2022-12-13T16:31:21;-1.30;73.90
2539;DHT22;1280;49.760;9.664;2022-12-13T16:33:49;-1.30;74.20
2539;DHT22;1280;49.760;9.664;2022-12-13T16:36:18;-1.20;74.20
2539;DHT22;1280;49.760;9.664;2022-12-13T16:38:47;-1.10;74.20
2539;DHT22;1280;49.760;9.664;2022-12-13T16:41:16;-1.10;74.30
2539;DHT22;1280;49.760;9.664;2022-12-13T16:43:50;-1.00;74.30
2539;DHT22;1280;49.760;9.664;2022-12-13T16:46:23;-0.90;74.20
2539;DHT22;1280;49.760;9.664;2022-12-13T16:49:17;-0.90;74.20
2539;DHT22;1280;49.760;9.664;2022-12-13T16:51:47;-0.90;74.10
2539;DHT22;1280;49.760;9.664;2022-12-13T16:54:16;-0.90;74.00
2539;DHT22;1280;49.760;9.664;2022-12-13T16:56:45;-0.90;74.00
2539;DHT22;1280;49.760;9.664;2022-12-13T16:59:14;-0.90;73.90
2539;DHT22;1280;49.760;9.664;2022-12-13T17:01:45;-0.90;73.90
2539;DHT22;1280;49.760;9.664;2022-12-13T17:04:15;-0.80;73.90
2539;DHT22;1280;49.760;9.664;2022-12-13T17:06:47;-0.90;73.80
2539;DHT22;1280;49.760;9.664;2022-12-13T17:09:16;-0.90;73.80
2539;DHT22;1280;49.760;9.664;2022-12-13T17:11:44;-0.90;73.70